createdAt,value
2023-03-24T00:01:24.855Z,102367.63
2023-03-24T00:03:53.358Z,102360.25
2023-03-24T00:06:23.473Z,102357.59
2023-03-24T00:08:51.850Z,102369.47
2023-03-24T00:11:21.992Z,102362.53
2023-03-24T00:13:51.113Z,102367.13
2023-03-24T00:16:20.696Z,102377.91
2023-03-24T00:18:54.267Z,102378.94
2023-03-24T00:21:25.532Z,102372.91
2023-03-24T00:23:56.140Z,102374.91
2023-03-24T00:26:25.903Z,102378.72
2023-03-24T00:28:55.182Z,102373.47
2023-03-24T00:31:25.190Z,102373.69
2023-03-24T00:33:54.584Z,102379.16
2023-03-24T00:36:25.188Z,102381.03
2023-03-24T00:38:54.719Z,102392.53
2023-03-24T00:41:27.637Z,102387.97
2023-03-24T00:43:59.237Z,102393.28
2023-03-24T00:46:28.955Z,102388.06
2023-03-24T00:49:03.336Z,102399.75
2023-03-24T00:51:37.621Z,102401.66
2023-03-24T00:54:07.480Z,102397.25
2023-03-24T00:56:38.549Z,102396.31
2023-03-24T00:59:06.991Z,102394.47
2023-03-24T01:01:37.194Z,102404.38
2023-03-24T01:04:07.133Z,102401.88
2023-03-24T01:06:38.578Z,102414.41
2023-03-24T01:09:08.129Z,102414.41
2023-03-24T01:11:40.753Z,102410.06
2023-03-24T01:14:10.455Z,102408.31
2023-03-24T01:16:38.910Z,102416.28
2023-03-24T01:19:09.928Z,102405.63
2023-03-24T01:21:39.818Z,102411.91
2023-03-24T01:24:09.178Z,102405.84
2023-03-24T01:26:37.591Z,102408.72
2023-03-24T01:29:06.826Z,102405.28
2023-03-24T01:31:35.503Z,102408.06
2023-03-24T01:34:04.281Z,102410.00
2023-03-24T01:36:32.546Z,102411.78
2023-03-24T01:39:02.054Z,102418.03
2023-03-24T01:41:39.490Z,102411.91
2023-03-24T01:44:33.161Z,102418.28
2023-03-24T01:47:02.993Z,102407.75
2023-03-24T01:49:38.031Z,102420.19
2023-03-24T01:52:12.220Z,102420.22
2023-03-24T01:54:45.702Z,102414.09
2023-03-24T01:57:21.664Z,102416.78
2023-03-24T01:59:53.865Z,102418.63
2023-03-24T02:02:23.050Z,102419.53
2023-03-24T02:05:00.186Z,102417.84
2023-03-24T02:07:54.261Z,102432.03
2023-03-24T02:10:24.672Z,102424.13
2023-03-24T02:12:52.962Z,102415.38
2023-03-24T02:15:23.606Z,102420.75
2023-03-24T02:18:14.288Z,102427.00
2023-03-24T02:21:06.828Z,102416.50
2023-03-24T02:23:54.974Z,102420.06
2023-03-24T02:26:50.747Z,102414.72
2023-03-24T02:29:47.506Z,102412.94
2023-03-24T02:33:02.942Z,102409.38
2023-03-24T02:35:55.787Z,102410.28
2023-03-24T02:38:35.283Z,102412.03
2023-03-24T02:41:21.692Z,102406.69
2023-03-24T02:44:08.375Z,102414.66
2023-03-24T02:46:46.194Z,102412.88
2023-03-24T02:49:23.998Z,102406.69
2023-03-24T02:52:06.272Z,102404.84
2023-03-24T02:54:55.767Z,102407.50
2023-03-24T02:57:33.005Z,102418.16
2023-03-24T03:00:14.777Z,102416.41
2023-03-24T03:02:59.731Z,102425.25
2023-03-24T03:05:27.563Z,102425.25
2023-03-24T03:08:00.080Z,102422.59
2023-03-24T03:10:36.352Z,102423.50
2023-03-24T03:13:12.288Z,102429.69
2023-03-24T03:15:46.257Z,102430.59
2023-03-24T03:18:34.904Z,102432.34
2023-03-24T03:21:10.005Z,102433.22
2023-03-24T03:23:47.336Z,102432.28
2023-03-24T03:26:20.550Z,102426.97
2023-03-24T03:28:58.569Z,102433.16
2023-03-24T03:31:37.443Z,102449.09
2023-03-24T03:34:38.669Z,102449.97
2023-03-24T03:37:17.567Z,102462.34
2023-03-24T03:39:54.042Z,102463.22
2023-03-24T03:42:23.106Z,102463.28
2023-03-24T03:44:51.623Z,102471.25
2023-03-24T03:47:22.137Z,102468.66
2023-03-24T03:49:51.838Z,102477.50
2023-03-24T03:52:20.815Z,102463.34
2023-03-24T03:54:50.334Z,102473.97
2023-03-24T03:57:21.341Z,102472.22
2023-03-24T03:59:49.589Z,102470.44
2023-03-24T04:02:43.022Z,102467.81
2023-03-24T04:05:47.061Z,102469.56
2023-03-24T04:08:49.038Z,102466.03
2023-03-24T04:11:32.445Z,102473.16
2023-03-24T04:14:45.799Z,102466.94
2023-03-24T04:17:31.782Z,102457.22
2023-03-24T04:20:21.196Z,102469.63
2023-03-24T04:22:59.349Z,102466.97
2023-03-24T04:25:30.632Z,102479.31
2023-03-24T04:28:07.713Z,102485.50
2023-03-24T04:30:45.458Z,102488.19
2023-03-24T04:33:24.056Z,102497.88
2023-03-24T04:36:07.236Z,102501.44
2023-03-24T04:38:39.108Z,102508.50
2023-03-24T04:41:08.289Z,102511.16
2023-03-24T04:43:39.173Z,102517.34
2023-03-24T04:46:10.169Z,102513.81
2023-03-24T04:48:38.509Z,102519.09
2023-03-24T04:51:09.407Z,102529.75
2023-03-24T04:53:37.938Z,102542.13
2023-03-24T04:56:29.751Z,102536.84
2023-03-24T04:58:59.585Z,102537.72
2023-03-24T05:01:31.033Z,102543.94
2023-03-24T05:04:00.526Z,102544.84
2023-03-24T05:06:28.971Z,102544.84
2023-03-24T05:08:59.774Z,102552.81
2023-03-24T05:11:28.532Z,102552.84
2023-03-24T05:13:56.811Z,102556.38
2023-03-24T05:16:25.035Z,102558.13
2023-03-24T05:18:53.241Z,102557.25
2023-03-24T05:21:21.564Z,102568.72
2023-03-24T05:23:49.821Z,102562.53
2023-03-24T05:26:18.098Z,102576.69
2023-03-24T05:28:46.526Z,102572.28
2023-03-24T05:31:14.827Z,102578.44
2023-03-24T05:33:43.058Z,102585.50
2023-03-24T05:36:12.273Z,102589.03
2023-03-24T05:38:40.824Z,102591.66
2023-03-24T05:41:09.440Z,102584.56
2023-03-24T05:43:37.687Z,102587.22
2023-03-24T05:46:06.117Z,102588.13
2023-03-24T05:48:34.396Z,102589.00
2023-03-24T05:51:02.860Z,102589.88
2023-03-24T05:53:31.933Z,102584.56
2023-03-24T05:56:00.399Z,102593.41
2023-03-24T05:58:28.616Z,102598.69
2023-03-24T06:00:57.971Z,102601.31
2023-03-24T06:03:26.338Z,102600.44
2023-03-24T06:05:54.653Z,102607.47
2023-03-24T06:08:22.860Z,102613.66
2023-03-24T06:10:51.192Z,102615.41
2023-03-24T06:13:19.370Z,102612.72
2023-03-24T06:15:48.876Z,102615.41
2023-03-24T06:18:17.249Z,102614.53
2023-03-24T06:20:45.952Z,102618.06
2023-03-24T06:23:14.164Z,102620.69
2023-03-24T06:25:45.477Z,102628.63
2023-03-24T06:28:15.057Z,102629.47
2023-03-24T06:30:45.957Z,102627.72
2023-03-24T06:33:15.582Z,102631.25
2023-03-24T06:35:44.409Z,102631.25
2023-03-24T06:38:12.852Z,102631.25
2023-03-24T06:40:41.057Z,102638.28
2023-03-24T06:43:09.303Z,102641.75
2023-03-24T06:45:40.320Z,102639.97
2023-03-24T06:48:08.641Z,102643.56
2023-03-24T06:50:40.006Z,102647.06
2023-03-24T06:53:09.381Z,102647.91
2023-03-24T06:55:37.935Z,102645.22
2023-03-24T06:58:06.293Z,102646.09
2023-03-24T07:00:35.828Z,102644.38
2023-03-24T07:03:04.341Z,102647.91
2023-03-24T07:05:34.571Z,102643.47
2023-03-24T07:08:27.841Z,102640.78
2023-03-24T07:10:52.026Z,102649.59
2023-03-24T07:13:20.257Z,102661.94
2023-03-24T07:15:48.472Z,102661.94
2023-03-24T07:18:16.898Z,102667.22
2023-03-24T07:20:45.520Z,102670.72
2023-03-24T07:23:14.591Z,102672.47
2023-03-24T07:25:46.153Z,102679.47
2023-03-24T07:28:14.376Z,102688.22
2023-03-24T07:30:42.631Z,102682.06
2023-03-24T07:33:12.938Z,102678.50
2023-03-24T07:35:41.700Z,102688.19
2023-03-24T07:38:11.022Z,102688.16
2023-03-24T07:40:39.372Z,102697.81
2023-03-24T07:43:07.695Z,102703.06
2023-03-24T07:45:36.125Z,102692.44
2023-03-24T07:48:04.490Z,102696.81
2023-03-24T07:50:33.734Z,102695.03
2023-03-24T07:53:02.067Z,102686.22
2023-03-24T07:55:30.640Z,102693.25
2023-03-24T07:57:58.973Z,102692.34
2023-03-24T08:00:27.233Z,102705.53
2023-03-24T08:02:55.886Z,102712.53
2023-03-24T08:05:25.640Z,102709.00
2023-03-24T08:07:57.973Z,102710.75
2023-03-24T08:10:28.786Z,102715.19
2023-03-24T08:12:58.295Z,102717.88
2023-03-24T08:15:28.292Z,102713.50
2023-03-24T08:17:57.577Z,102707.31
2023-03-24T08:20:27.948Z,102717.88
2023-03-24T08:22:56.811Z,102716.94
2023-03-24T08:25:27.595Z,102716.06
2023-03-24T08:27:56.173Z,102715.19
2023-03-24T08:30:26.483Z,102709.94
2023-03-24T08:33:03.417Z,102711.72
2023-03-24T08:35:39.469Z,102715.22
2023-03-24T08:38:10.234Z,102719.63
2023-03-24T08:40:39.998Z,102719.59
2023-03-24T08:43:09.786Z,102714.28
2023-03-24T08:45:38.632Z,102721.25
2023-03-24T08:48:08.892Z,102710.69
2023-03-24T08:50:40.252Z,102707.19
2023-03-24T08:53:09.553Z,102706.31
2023-03-24T08:55:42.414Z,102700.16
2023-03-24T08:58:15.886Z,102695.75
2023-03-24T09:00:45.530Z,102703.63
2023-03-24T09:03:23.136Z,102705.34
2023-03-24T09:05:51.871Z,102698.31
2023-03-24T09:08:21.038Z,102708.00
2023-03-24T09:10:49.553Z,102714.09
2023-03-24T09:13:18.749Z,102723.69
2023-03-24T09:15:49.691Z,102721.00
2023-03-24T09:18:18.974Z,102710.34
2023-03-24T09:20:48.016Z,102712.09
2023-03-24T09:23:17.072Z,102706.75
2023-03-24T09:25:46.013Z,102711.94
2023-03-24T09:28:15.809Z,102713.63
2023-03-24T09:30:45.072Z,102711.81
2023-03-24T09:33:13.803Z,102717.03
2023-03-24T09:35:42.801Z,102702.06
2023-03-24T09:38:13.010Z,102706.47
2023-03-24T09:40:43.453Z,102699.44
2023-03-24T09:43:23.988Z,102697.66
2023-03-24T09:45:57.935Z,102704.66
2023-03-24T09:48:49.257Z,102709.81
2023-03-24T09:51:25.574Z,102711.50
2023-03-24T09:54:02.690Z,102701.84
2023-03-24T09:56:33.732Z,102703.66
2023-03-24T09:59:17.518Z,102692.16
2023-03-24T10:01:46.369Z,102707.97
2023-03-24T10:04:22.582Z,102703.53
2023-03-24T10:06:58.279Z,102707.94
2023-03-24T10:09:36.263Z,102713.22
2023-03-24T10:12:27.121Z,102713.22
2023-03-24T10:15:30.944Z,102709.69
2023-03-24T10:18:19.044Z,102708.81
2023-03-24T10:21:18.698Z,102709.69
2023-03-24T10:23:49.596Z,102708.81
2023-03-24T10:26:17.794Z,102706.16
2023-03-24T10:28:57.790Z,102707.84
2023-03-24T10:31:37.515Z,102704.25
2023-03-24T10:34:06.204Z,102700.75
2023-03-24T10:36:34.839Z,102709.53
2023-03-24T10:39:12.913Z,102703.38
2023-03-24T10:41:47.196Z,102702.47
2023-03-24T10:44:15.977Z,102706.00
2023-03-24T10:46:50.785Z,102705.94
2023-03-24T10:49:20.625Z,102714.72
2023-03-24T10:51:54.934Z,102705.94
2023-03-24T10:54:28.452Z,102714.75
2023-03-24T10:57:00.071Z,102712.09
2023-03-24T10:59:33.905Z,102707.63
2023-03-24T11:02:11.118Z,102715.53
2023-03-24T11:04:41.404Z,102709.38
2023-03-24T11:07:19.885Z,102703.25
2023-03-24T11:09:58.937Z,102698.84
2023-03-24T11:12:30.154Z,102700.53
2023-03-24T11:15:24.038Z,102700.53
2023-03-24T11:17:58.595Z,102699.63
2023-03-24T11:20:38.073Z,102709.25
2023-03-24T11:23:15.078Z,102711.00
2023-03-24T11:25:45.838Z,102709.25
2023-03-24T11:28:20.154Z,102709.31
2023-03-24T11:30:51.418Z,102711.06
2023-03-24T11:33:36.092Z,102703.13
2023-03-24T11:36:31.214Z,102701.31
2023-03-24T11:39:21.176Z,102703.91
2023-03-24T11:42:02.568Z,102703.00
2023-03-24T11:44:42.850Z,102703.84
2023-03-24T11:47:34.602Z,102703.78
2023-03-24T11:50:11.825Z,102702.00
2023-03-24T11:53:23.369Z,102702.75
2023-03-24T11:56:17.477Z,102702.59
2023-03-24T11:59:00.204Z,102714.72
2023-03-24T12:01:34.068Z,102721.69
2023-03-24T12:04:30.431Z,102704.91
2023-03-24T12:07:08.784Z,102714.44
2023-03-24T12:09:46.871Z,102716.97
2023-03-24T12:12:43.278Z,102720.38
2023-03-24T12:15:27.374Z,102718.56
2023-03-24T12:18:02.137Z,102730.78
2023-03-24T12:20:39.497Z,102729.91
2023-03-24T12:23:36.961Z,102743.88
2023-03-24T12:26:30.171Z,102742.09
2023-03-24T12:29:38.331Z,102747.44
2023-03-24T12:32:24.512Z,102750.06
2023-03-24T12:35:22.349Z,102744.78
2023-03-24T12:37:59.041Z,102752.63
2023-03-24T12:41:08.704Z,102749.13
2023-03-24T12:43:59.811Z,102746.38
2023-03-24T12:46:53.790Z,102747.13
2023-03-24T12:49:49.043Z,102751.50
2023-03-24T12:53:06.745Z,102757.69
2023-03-24T12:55:50.391Z,102757.63
2023-03-24T12:58:36.211Z,102768.97
2023-03-24T13:01:22.743Z,102775.97
2023-03-24T13:04:09.809Z,102777.63
2023-03-24T13:06:54.030Z,102780.28
2023-03-24T13:10:00.225Z,102781.84
2023-03-24T13:13:01.807Z,102780.00
2023-03-24T13:15:42.659Z,102786.16
2023-03-24T13:18:19.524Z,102779.97
2023-03-24T13:20:57.728Z,102783.38
2023-03-24T13:23:46.789Z,102784.22
2023-03-24T13:26:40.743Z,102786.00
2023-03-24T13:29:47.919Z,102781.50
2023-03-24T13:32:26.223Z,102787.56
2023-03-24T13:35:06.804Z,102792.78
2023-03-24T13:37:39.919Z,102797.97
2023-03-24T13:40:16.692Z,102797.00
2023-03-24T13:42:49.353Z,102796.03
2023-03-24T13:45:53.916Z,102801.25
2023-03-24T13:48:34.602Z,102807.22
2023-03-24T13:51:06.157Z,102807.06
2023-03-24T13:53:36.880Z,102815.88
2023-03-24T13:56:08.223Z,102816.88
2023-03-24T13:59:00.821Z,102809.00
2023-03-24T14:01:39.502Z,102806.44
2023-03-24T14:04:19.985Z,102811.72
2023-03-24T14:06:59.831Z,102813.44
2023-03-24T14:09:30.438Z,102814.31
2023-03-24T14:12:05.792Z,102813.44
2023-03-24T14:15:13.828Z,102810.72
2023-03-24T14:17:50.634Z,102817.69
2023-03-24T14:20:34.441Z,102812.38
2023-03-24T14:23:05.021Z,102811.41
2023-03-24T14:25:35.180Z,102805.25
2023-03-24T14:28:21.852Z,102814.03
2023-03-24T14:31:16.983Z,102818.41
2023-03-24T14:33:54.518Z,102824.56
2023-03-24T14:36:45.117Z,102834.28
2023-03-24T14:39:28.033Z,102843.84
2023-03-24T14:41:59.039Z,102842.06
2023-03-24T14:44:53.209Z,102838.66
2023-03-24T14:47:23.659Z,102837.88
2023-03-24T14:49:56.490Z,102838.84
2023-03-24T14:52:41.155Z,102846.03
2023-03-24T14:55:20.329Z,102845.38
2023-03-24T14:57:57.344Z,102856.88
2023-03-24T15:00:45.490Z,102857.88
2023-03-24T15:04:01.230Z,102860.63
2023-03-24T15:06:29.979Z,102859.03
2023-03-24T15:09:00.239Z,102861.84
2023-03-24T15:11:34.628Z,102872.63
2023-03-24T15:14:06.250Z,102870.22
2023-03-24T15:16:38.898Z,102873.97
2023-03-24T15:19:20.804Z,102878.59
2023-03-24T15:21:51.564Z,102877.97
2023-03-24T15:24:23.010Z,102879.91
2023-03-24T15:26:55.041Z,102880.16
2023-03-24T15:29:24.767Z,102881.31
2023-03-24T15:31:53.219Z,102890.34
2023-03-24T15:34:32.308Z,102893.13
2023-03-24T15:37:04.389Z,102894.13
2023-03-24T15:39:41.858Z,102883.78
2023-03-24T15:42:18.929Z,102890.94
2023-03-24T15:44:47.413Z,102886.69
2023-03-24T15:47:25.588Z,102884.22
2023-03-24T15:49:59.257Z,102882.59
2023-03-24T15:52:37.155Z,102883.56
2023-03-24T15:55:31.100Z,102888.97
2023-03-24T15:58:02.665Z,102892.56
2023-03-24T16:00:38.511Z,102890.00
2023-03-24T16:03:07.946Z,102890.06
2023-03-24T16:05:36.653Z,102879.56
2023-03-24T16:08:26.633Z,102882.31
2023-03-24T16:11:05.951Z,102893.97
2023-03-24T16:13:34.628Z,102880.78
2023-03-24T16:16:24.396Z,102896.66
2023-03-24T16:18:53.232Z,102889.72
2023-03-24T16:21:24.867Z,102893.25
2023-03-24T16:23:55.006Z,102904.75
2023-03-24T16:26:32.318Z,102895.94
2023-03-24T16:29:18.112Z,102888.97
2023-03-24T16:31:51.640Z,102892.59
2023-03-24T16:34:23.824Z,102896.13
2023-03-24T16:36:53.622Z,102898.75
2023-03-24T16:39:24.773Z,102912.03
2023-03-24T16:41:53.260Z,102898.81
2023-03-24T16:44:22.433Z,102902.44
2023-03-24T16:46:54.560Z,102915.72
2023-03-24T16:49:24.577Z,102914.91
2023-03-24T16:51:54.601Z,102914.94
2023-03-24T16:54:23.019Z,102907.91
2023-03-24T16:56:51.487Z,102912.34
2023-03-24T16:59:20.592Z,102911.47
2023-03-24T17:01:48.897Z,102912.38
2023-03-24T17:04:23.204Z,102910.69
2023-03-24T17:06:54.789Z,102901.03
2023-03-24T17:09:24.421Z,102906.41
2023-03-24T17:11:57.182Z,102909.13
2023-03-24T17:14:25.448Z,102897.69
2023-03-24T17:16:54.297Z,102910.97
2023-03-24T17:19:25.162Z,102909.28
2023-03-24T17:22:06.361Z,102912.00
2023-03-24T17:24:42.538Z,102904.94
2023-03-24T17:27:21.970Z,102902.31
2023-03-24T17:29:50.415Z,102907.66
2023-03-24T17:32:20.527Z,102907.78
2023-03-24T17:34:50.428Z,102910.44
2023-03-24T17:37:18.668Z,102915.78
2023-03-24T17:39:49.741Z,102905.22
2023-03-24T17:42:17.972Z,102909.69
2023-03-24T17:44:46.449Z,102916.75
2023-03-24T17:47:14.713Z,102909.63
2023-03-24T17:49:43.556Z,102924.69
2023-03-24T17:52:12.879Z,102922.09
2023-03-24T17:54:41.175Z,102919.44
2023-03-24T17:57:09.491Z,102917.72
2023-03-24T17:59:38.712Z,102921.28
2023-03-24T18:02:08.099Z,102913.31
2023-03-24T18:04:36.346Z,102919.50
2023-03-24T18:07:04.984Z,102931.88
2023-03-24T18:09:33.852Z,102920.38
2023-03-24T18:12:02.129Z,102919.53
2023-03-24T18:14:30.411Z,102913.38
2023-03-24T18:16:58.763Z,102919.59
2023-03-24T18:19:27.438Z,102922.31
2023-03-24T18:21:55.844Z,102921.47
2023-03-24T18:24:26.413Z,102921.47
2023-03-24T18:26:54.613Z,102921.50
2023-03-24T18:29:23.899Z,102927.75
2023-03-24T18:31:52.228Z,102920.69
2023-03-24T18:34:20.581Z,102928.66
2023-03-24T18:36:48.989Z,102923.34
2023-03-24T18:39:17.737Z,102920.72
2023-03-24T18:41:46.345Z,102932.22
2023-03-24T18:44:15.713Z,102924.25
2023-03-24T18:46:45.116Z,102918.09
2023-03-24T18:49:16.612Z,102911.84
2023-03-24T18:51:46.076Z,102921.63
2023-03-24T18:54:14.920Z,102914.56
2023-03-24T18:56:43.170Z,102920.75
2023-03-24T18:59:12.625Z,102919.00
2023-03-24T19:01:40.919Z,102924.31
2023-03-24T19:04:10.154Z,102914.53
2023-03-24T19:06:43.056Z,102912.78
2023-03-24T19:09:19.121Z,102911.91
2023-03-24T19:11:48.656Z,102914.53
2023-03-24T19:14:16.978Z,102907.47
2023-03-24T19:16:45.508Z,102900.34
2023-03-24T19:19:13.750Z,102906.56
2023-03-24T19:21:42.646Z,102902.13
2023-03-24T19:24:11.048Z,102896.78
2023-03-24T19:26:39.314Z,102897.66
2023-03-24T19:29:07.596Z,102887.91
2023-03-24T19:31:35.984Z,102881.69
2023-03-24T19:34:04.383Z,102873.72
2023-03-24T19:36:32.664Z,102878.13
2023-03-24T19:39:02.716Z,102870.09
2023-03-24T19:41:30.945Z,102867.41
2023-03-24T19:43:59.221Z,102859.44
2023-03-24T19:46:27.521Z,102864.72
2023-03-24T19:48:55.722Z,102871.75
2023-03-24T19:51:25.271Z,102879.72
2023-03-24T19:53:53.487Z,102872.69
2023-03-24T19:56:22.658Z,102865.56
2023-03-24T19:58:51.068Z,102854.84
2023-03-24T20:01:20.123Z,102853.84
2023-03-24T20:03:48.576Z,102852.03
2023-03-24T20:06:19.547Z,102852.88
2023-03-24T20:08:48.052Z,102843.03
2023-03-24T20:11:16.285Z,102844.69
2023-03-24T20:13:44.488Z,102841.94
2023-03-24T20:16:13.048Z,102844.56
2023-03-24T20:18:41.273Z,102836.53
2023-03-24T20:21:10.136Z,102840.94
2023-03-24T20:23:38.416Z,102840.06
2023-03-24T20:26:06.830Z,102829.34
2023-03-24T20:28:35.096Z,102831.19
2023-03-24T20:31:04.876Z,102828.50
2023-03-24T20:33:33.591Z,102834.56
2023-03-24T20:36:02.197Z,102838.06
2023-03-24T20:38:30.476Z,102826.47
2023-03-24T20:40:59.950Z,102838.94
2023-03-24T20:43:28.252Z,102821.13
2023-03-24T20:45:59.843Z,102816.66
2023-03-24T20:48:28.335Z,102814.81
2023-03-24T20:50:56.616Z,102804.88
2023-03-24T20:53:25.702Z,102802.09
2023-03-24T20:56:17.518Z,102799.41
2023-03-24T20:58:46.744Z,102799.28
2023-03-24T21:01:24.726Z,102793.72
2023-03-24T21:03:55.616Z,102798.75
2023-03-24T21:06:28.261Z,102792.56
2023-03-24T21:08:58.613Z,102780.91
2023-03-24T21:11:27.786Z,102788.72
2023-03-24T21:13:56.174Z,102776.38
2023-03-24T21:16:24.492Z,102794.19
2023-03-24T21:18:54.904Z,102775.56
2023-03-24T21:21:23.343Z,102767.34
2023-03-24T21:23:53.521Z,102772.31
2023-03-24T21:26:22.232Z,102754.22
2023-03-24T21:28:50.828Z,102760.09
2023-03-24T21:31:25.452Z,102751.13
2023-03-24T21:33:55.298Z,102749.22
2023-03-24T21:36:25.385Z,102740.88
2023-03-24T21:38:54.904Z,102731.09
2023-03-24T21:41:23.924Z,102732.78
2023-03-24T21:43:54.860Z,102730.78
2023-03-24T21:46:25.179Z,102720.59
2023-03-24T21:48:59.884Z,102725.84
2023-03-24T21:51:31.436Z,102711.69
2023-03-24T21:54:04.280Z,102716.78
2023-03-24T21:56:34.311Z,102709.28
2023-03-24T21:59:03.118Z,102712.91
2023-03-24T22:01:34.746Z,102717.25
2023-03-24T22:04:04.254Z,102714.47
2023-03-24T22:06:38.294Z,102718.13
2023-03-24T22:09:08.029Z,102710.09
2023-03-24T22:11:37.432Z,102709.25
2023-03-24T22:14:05.722Z,102703.81
2023-03-24T22:16:33.934Z,102702.72
2023-03-24T22:19:02.435Z,102693.91
2023-03-24T22:21:30.769Z,102697.34
2023-03-24T22:23:59.029Z,102697.97
2023-03-24T22:26:27.361Z,102702.47
2023-03-24T22:28:57.004Z,102699.03
2023-03-24T22:31:25.522Z,102700.75
2023-03-24T22:33:54.619Z,102693.63
2023-03-24T22:36:22.983Z,102682.53
2023-03-24T22:38:51.218Z,102686.09
2023-03-24T22:41:19.506Z,102674.44
2023-03-24T22:43:47.694Z,102674.81
2023-03-24T22:46:16.296Z,102676.13
2023-03-24T22:48:44.583Z,102670.28
2023-03-24T22:51:17.647Z,102662.75
2023-03-24T22:53:49.316Z,102657.81
2023-03-24T22:56:17.649Z,102651.91
2023-03-24T22:58:46.284Z,102652.56
2023-03-24T23:01:14.522Z,102664.09
2023-03-24T23:03:42.970Z,102676.25
2023-03-24T23:06:12.699Z,102653.41
2023-03-24T23:08:41.063Z,102652.91
2023-03-24T23:11:09.703Z,102639.97
2023-03-24T23:13:39.593Z,102642.22
2023-03-24T23:16:08.637Z,102656.75
2023-03-24T23:18:37.002Z,102642.69
2023-03-24T23:21:09.958Z,102645.56
2023-03-24T23:23:39.508Z,102663.66
2023-03-24T23:26:26.177Z,102647.84
2023-03-24T23:28:55.075Z,102643.69
2023-03-24T23:31:27.940Z,102660.75
2023-03-24T23:33:58.256Z,102650.19
2023-03-24T23:36:29.094Z,102644.97
2023-03-24T23:38:57.494Z,102636.94
2023-03-24T23:41:25.792Z,102638.69
2023-03-24T23:43:54.675Z,102635.13
2023-03-24T23:46:24.781Z,102623.56
2023-03-24T23:48:53.446Z,102628.91
2023-03-24T23:51:21.886Z,102638.63
2023-03-24T23:53:50.145Z,102621.72
2023-03-24T23:56:22.222Z,102628.88
2023-03-24T23:58:50.520Z,102628.94
